sensor_id;sensor_type;location;lat;lon;timestamp;P1;durP1;ratioP1;P2;durP2;ratioP2
17618;SDS011;8928;51.678;6.074;2023-02-13T00:01:34;59.40;;;24.03;;
17618;SDS011;8928;51.678;6.074;2023-02-13T00:04:21;54.73;;;23.13;;
17618;SDS011;8928;51.678;6.074;2023-02-13T00:07:08;57.37;;;23.07;;
17618;SDS011;8928;51.678;6.074;2023-02-13T00:09:56;56.40;;;23.10;;
17618;SDS011;8928;51.678;6.074;2023-02-13T00:12:45;57.30;;;23.33;;
17618;SDS011;8928;51.678;6.074;2023-02-13T00:15:32;61.77;;;25.10;;
17618;SDS011;8928;51.678;6.074;2023-02-13T00:18:19;61.07;;;23.97;;
17618;SDS011;8928;51.678;6.074;2023-02-13T00:21:06;60.80;;;23.93;;
17618;SDS011;8928;51.678;6.074;2023-02-13T00:23:54;59.73;;;23.80;;
17618;SDS011;8928;51.678;6.074;2023-02-13T00:26:41;59.17;;;23.60;;
17618;SDS011;8928;51.678;6.074;2023-02-13T00:29:30;63.27;;;24.07;;
17618;SDS011;8928;51.678;6.074;2023-02-13T00:32:17;56.47;;;23.83;;
17618;SDS011;8928;51.678;6.074;2023-02-13T00:35:04;60.63;;;23.63;;
17618;SDS011;8928;51.678;6.074;2023-02-13T00:37:51;55.77;;;23.80;;
17618;SDS011;8928;51.678;6.074;2023-02-13T00:40:38;60.47;;;24.00;;
17618;SDS011;8928;51.678;6.074;2023-02-13T00:43:25;56.83;;;23.27;;
17618;SDS011;8928;51.678;6.074;2023-02-13T00:46:14;57.47;;;23.87;;
17618;SDS011;8928;51.678;6.074;2023-02-13T00:49:01;61.70;;;24.90;;
17618;SDS011;8928;51.678;6.074;2023-02-13T00:51:48;58.67;;;24.47;;
17618;SDS011;8928;51.678;6.074;2023-02-13T00:54:36;58.77;;;24.67;;
17618;SDS011;8928;51.678;6.074;2023-02-13T00:57:23;63.17;;;25.10;;
17618;SDS011;8928;51.678;6.074;2023-02-13T01:00:10;59.33;;;24.50;;
17618;SDS011;8928;51.678;6.074;2023-02-13T01:02:59;62.97;;;25.23;;
17618;SDS011;8928;51.678;6.074;2023-02-13T01:05:46;59.77;;;24.67;;
17618;SDS011;8928;51.678;6.074;2023-02-13T01:08:34;61.60;;;24.60;;
17618;SDS011;8928;51.678;6.074;2023-02-13T01:11:24;58.17;;;25.20;;
17618;SDS011;8928;51.678;6.074;2023-02-13T01:14:11;59.40;;;24.23;;
17618;SDS011;8928;51.678;6.074;2023-02-13T01:16:58;62.20;;;25.67;;
17618;SDS011;8928;51.678;6.074;2023-02-13T01:19:47;63.77;;;25.17;;
17618;SDS011;8928;51.678;6.074;2023-02-13T01:22:34;63.47;;;25.30;;
17618;SDS011;8928;51.678;6.074;2023-02-13T01:25:21;62.83;;;25.63;;
17618;SDS011;8928;51.678;6.074;2023-02-13T01:28:08;62.63;;;25.07;;
17618;SDS011;8928;51.678;6.074;2023-02-13T01:30:55;65.17;;;25.00;;
17618;SDS011;8928;51.678;6.074;2023-02-13T01:33:43;63.40;;;24.70;;
17618;SDS011;8928;51.678;6.074;2023-02-13T01:36:31;60.00;;;25.03;;
17618;SDS011;8928;51.678;6.074;2023-02-13T01:39:18;60.70;;;24.97;;
17618;SDS011;8928;51.678;6.074;2023-02-13T01:42:08;61.63;;;25.77;;
17618;SDS011;8928;51.678;6.074;2023-02-13T01:45:01;60.07;;;24.43;;
17618;SDS011;8928;51.678;6.074;2023-02-13T01:48:06;63.07;;;25.33;;
17618;SDS011;8928;51.678;6.074;2023-02-13T01:50:57;63.93;;;26.30;;
17618;SDS011;8928;51.678;6.074;2023-02-13T01:53:50;57.73;;;24.63;;
17618;SDS011;8928;51.678;6.074;2023-02-13T01:56:41;63.97;;;25.33;;
17618;SDS011;8928;51.678;6.074;2023-02-13T01:59:33;62.17;;;25.90;;
17618;SDS011;8928;51.678;6.074;2023-02-13T02:02:26;63.70;;;25.80;;
17618;SDS011;8928;51.678;6.074;2023-02-13T02:05:15;62.07;;;24.93;;
17618;SDS011;8928;51.678;6.074;2023-02-13T02:08:05;67.50;;;26.27;;
17618;SDS011;8928;51.678;6.074;2023-02-13T02:10:56;61.13;;;24.87;;
17618;SDS011;8928;51.678;6.074;2023-02-13T02:13:50;61.07;;;24.90;;
17618;SDS011;8928;51.678;6.074;2023-02-13T02:16:38;58.70;;;24.03;;
17618;SDS011;8928;51.678;6.074;2023-02-13T02:19:27;63.07;;;26.03;;
17618;SDS011;8928;51.678;6.074;2023-02-13T02:22:29;68.93;;;26.10;;
17618;SDS011;8928;51.678;6.074;2023-02-13T02:35:36;60.27;;;25.03;;
17618;SDS011;8928;51.678;6.074;2023-02-13T02:38:39;69.53;;;26.77;;
17618;SDS011;8928;51.678;6.074;2023-02-13T02:41:41;63.87;;;26.53;;
17618;SDS011;8928;51.678;6.074;2023-02-13T02:44:39;62.30;;;26.17;;
17618;SDS011;8928;51.678;6.074;2023-02-13T02:47:31;69.37;;;27.23;;
17618;SDS011;8928;51.678;6.074;2023-02-13T02:50:43;69.77;;;26.70;;
17618;SDS011;8928;51.678;6.074;2023-02-13T02:53:37;68.07;;;27.60;;
17618;SDS011;8928;51.678;6.074;2023-02-13T02:56:30;69.47;;;26.43;;
17618;SDS011;8928;51.678;6.074;2023-02-13T02:59:23;75.47;;;26.30;;
17618;SDS011;8928;51.678;6.074;2023-02-13T03:02:30;62.13;;;25.20;;
17618;SDS011;8928;51.678;6.074;2023-02-13T03:05:36;66.80;;;26.70;;
17618;SDS011;8928;51.678;6.074;2023-02-13T03:08:46;64.60;;;25.70;;
17618;SDS011;8928;51.678;6.074;2023-02-13T03:11:55;65.57;;;26.20;;
17618;SDS011;8928;51.678;6.074;2023-02-13T03:15:01;66.37;;;24.80;;
17618;SDS011;8928;51.678;6.074;2023-02-13T03:17:49;69.33;;;25.00;;
17618;SDS011;8928;51.678;6.074;2023-02-13T03:20:54;68.03;;;26.93;;
17618;SDS011;8928;51.678;6.074;2023-02-13T03:24:12;66.53;;;24.87;;
17618;SDS011;8928;51.678;6.074;2023-02-13T03:27:11;59.93;;;24.33;;
17618;SDS011;8928;51.678;6.074;2023-02-13T03:30:30;62.40;;;24.90;;
17618;SDS011;8928;51.678;6.074;2023-02-13T03:33:29;57.63;;;24.20;;
17618;SDS011;8928;51.678;6.074;2023-02-13T03:36:31;57.07;;;24.47;;
17618;SDS011;8928;51.678;6.074;2023-02-13T03:39:45;60.40;;;24.40;;
17618;SDS011;8928;51.678;6.074;2023-02-13T03:42:39;56.67;;;23.33;;
17618;SDS011;8928;51.678;6.074;2023-02-13T03:45:31;54.60;;;22.90;;
17618;SDS011;8928;51.678;6.074;2023-02-13T03:48:41;51.47;;;22.47;;
17618;SDS011;8928;51.678;6.074;2023-02-13T03:51:44;53.83;;;22.67;;
17618;SDS011;8928;51.678;6.074;2023-02-13T03:54:37;50.27;;;21.23;;
17618;SDS011;8928;51.678;6.074;2023-02-13T03:57:47;53.10;;;22.17;;
17618;SDS011;8928;51.678;6.074;2023-02-13T04:00:56;48.77;;;21.27;;
17618;SDS011;8928;51.678;6.074;2023-02-13T04:03:47;46.27;;;19.97;;
17618;SDS011;8928;51.678;6.074;2023-02-13T04:06:38;49.23;;;20.60;;
17618;SDS011;8928;51.678;6.074;2023-02-13T04:09:32;47.70;;;20.20;;
17618;SDS011;8928;51.678;6.074;2023-02-13T04:12:23;45.53;;;20.50;;
17618;SDS011;8928;51.678;6.074;2023-02-13T04:15:18;47.60;;;20.70;;
17618;SDS011;8928;51.678;6.074;2023-02-13T04:18:12;46.87;;;19.77;;
17618;SDS011;8928;51.678;6.074;2023-02-13T04:21:03;45.70;;;19.83;;
17618;SDS011;8928;51.678;6.074;2023-02-13T04:23:51;45.60;;;19.73;;
17618;SDS011;8928;51.678;6.074;2023-02-13T04:26:38;41.30;;;18.60;;
17618;SDS011;8928;51.678;6.074;2023-02-13T04:29:27;40.77;;;18.73;;
17618;SDS011;8928;51.678;6.074;2023-02-13T04:32:15;43.60;;;19.60;;
17618;SDS011;8928;51.678;6.074;2023-02-13T04:35:03;42.60;;;19.13;;
17618;SDS011;8928;51.678;6.074;2023-02-13T04:37:50;46.67;;;19.10;;
17618;SDS011;8928;51.678;6.074;2023-02-13T04:40:37;47.23;;;19.37;;
17618;SDS011;8928;51.678;6.074;2023-02-13T04:43:24;43.43;;;18.53;;
17618;SDS011;8928;51.678;6.074;2023-02-13T04:46:11;43.27;;;18.93;;
17618;SDS011;8928;51.678;6.074;2023-02-13T04:48:59;38.80;;;17.80;;
17618;SDS011;8928;51.678;6.074;2023-02-13T04:51:46;41.87;;;17.70;;
17618;SDS011;8928;51.678;6.074;2023-02-13T04:54:33;41.00;;;18.03;;
17618;SDS011;8928;51.678;6.074;2023-02-13T04:57:20;40.87;;;17.40;;
17618;SDS011;8928;51.678;6.074;2023-02-13T05:00:08;42.13;;;18.03;;
17618;SDS011;8928;51.678;6.074;2023-02-13T05:02:59;41.33;;;18.07;;
17618;SDS011;8928;51.678;6.074;2023-02-13T05:05:48;41.03;;;17.77;;
17618;SDS011;8928;51.678;6.074;2023-02-13T05:08:35;42.87;;;18.53;;
17618;SDS011;8928;51.678;6.074;2023-02-13T05:11:22;42.67;;;18.67;;
17618;SDS011;8928;51.678;6.074;2023-02-13T05:14:09;42.53;;;18.57;;
17618;SDS011;8928;51.678;6.074;2023-02-13T05:16:56;45.07;;;19.30;;
17618;SDS011;8928;51.678;6.074;2023-02-13T05:19:43;42.23;;;19.03;;
17618;SDS011;8928;51.678;6.074;2023-02-13T05:22:31;47.63;;;19.60;;
17618;SDS011;8928;51.678;6.074;2023-02-13T05:25:37;45.13;;;19.20;;
17618;SDS011;8928;51.678;6.074;2023-02-13T05:28:26;40.83;;;18.30;;
17618;SDS011;8928;51.678;6.074;2023-02-13T05:31:30;40.33;;;17.50;;
17618;SDS011;8928;51.678;6.074;2023-02-13T05:34:18;43.87;;;18.17;;
17618;SDS011;8928;51.678;6.074;2023-02-13T05:37:06;41.07;;;17.43;;
17618;SDS011;8928;51.678;6.074;2023-02-13T05:39:54;42.33;;;17.80;;
17618;SDS011;8928;51.678;6.074;2023-02-13T05:42:41;42.67;;;18.13;;
17618;SDS011;8928;51.678;6.074;2023-02-13T05:45:28;41.57;;;17.33;;
17618;SDS011;8928;51.678;6.074;2023-02-13T05:48:15;40.60;;;17.40;;
17618;SDS011;8928;51.678;6.074;2023-02-13T05:51:02;42.83;;;17.67;;
17618;SDS011;8928;51.678;6.074;2023-02-13T05:53:50;41.27;;;17.03;;
17618;SDS011;8928;51.678;6.074;2023-02-13T05:56:38;42.23;;;17.73;;
17618;SDS011;8928;51.678;6.074;2023-02-13T05:59:26;48.87;;;18.07;;
17618;SDS011;8928;51.678;6.074;2023-02-13T06:02:13;45.53;;;18.80;;
17618;SDS011;8928;51.678;6.074;2023-02-13T06:05:00;44.57;;;18.43;;
17618;SDS011;8928;51.678;6.074;2023-02-13T06:07:47;47.70;;;18.63;;
17618;SDS011;8928;51.678;6.074;2023-02-13T06:10:34;46.10;;;18.50;;
17618;SDS011;8928;51.678;6.074;2023-02-13T06:13:22;49.30;;;19.60;;
17618;SDS011;8928;51.678;6.074;2023-02-13T06:16:09;46.23;;;18.97;;
17618;SDS011;8928;51.678;6.074;2023-02-13T06:18:57;47.00;;;17.93;;
17618;SDS011;8928;51.678;6.074;2023-02-13T06:21:44;45.70;;;18.33;;
17618;SDS011;8928;51.678;6.074;2023-02-13T06:24:31;47.87;;;18.13;;
17618;SDS011;8928;51.678;6.074;2023-02-13T06:27:18;47.03;;;18.60;;
17618;SDS011;8928;51.678;6.074;2023-02-13T06:30:07;42.77;;;17.90;;
17618;SDS011;8928;51.678;6.074;2023-02-13T06:32:54;48.73;;;18.97;;
17618;SDS011;8928;51.678;6.074;2023-02-13T06:35:42;49.57;;;19.40;;
17618;SDS011;8928;51.678;6.074;2023-02-13T06:38:29;47.60;;;19.57;;
17618;SDS011;8928;51.678;6.074;2023-02-13T06:41:16;49.60;;;19.40;;
17618;SDS011;8928;51.678;6.074;2023-02-13T06:44:03;43.07;;;18.00;;
17618;SDS011;8928;51.678;6.074;2023-02-13T06:46:53;46.03;;;18.73;;
17618;SDS011;8928;51.678;6.074;2023-02-13T06:49:40;48.53;;;19.03;;
17618;SDS011;8928;51.678;6.074;2023-02-13T06:52:27;46.80;;;18.83;;
17618;SDS011;8928;51.678;6.074;2023-02-13T06:55:15;50.37;;;19.37;;
17618;SDS011;8928;51.678;6.074;2023-02-13T06:58:02;47.70;;;18.57;;
17618;SDS011;8928;51.678;6.074;2023-02-13T07:00:50;48.77;;;19.00;;
17618;SDS011;8928;51.678;6.074;2023-02-13T07:03:39;47.57;;;19.70;;
17618;SDS011;8928;51.678;6.074;2023-02-13T07:06:26;51.93;;;19.07;;
17618;SDS011;8928;51.678;6.074;2023-02-13T07:09:13;53.07;;;20.37;;
17618;SDS011;8928;51.678;6.074;2023-02-13T07:12:01;48.17;;;19.70;;
17618;SDS011;8928;51.678;6.074;2023-02-13T07:14:48;46.40;;;20.13;;
17618;SDS011;8928;51.678;6.074;2023-02-13T07:17:35;48.97;;;19.60;;
17618;SDS011;8928;51.678;6.074;2023-02-13T07:20:24;49.43;;;20.20;;
17618;SDS011;8928;51.678;6.074;2023-02-13T07:23:12;46.13;;;18.67;;
17618;SDS011;8928;51.678;6.074;2023-02-13T07:25:59;46.30;;;18.70;;
17618;SDS011;8928;51.678;6.074;2023-02-13T07:28:47;47.93;;;18.77;;
17618;SDS011;8928;51.678;6.074;2023-02-13T07:31:34;51.40;;;20.00;;
17618;SDS011;8928;51.678;6.074;2023-02-13T07:34:21;51.77;;;19.43;;
17618;SDS011;8928;51.678;6.074;2023-02-13T07:37:10;48.27;;;20.03;;
17618;SDS011;8928;51.678;6.074;2023-02-13T07:39:57;51.03;;;20.13;;
17618;SDS011;8928;51.678;6.074;2023-02-13T07:42:44;52.37;;;19.77;;
17618;SDS011;8928;51.678;6.074;2023-02-13T07:45:31;55.00;;;20.10;;
17618;SDS011;8928;51.678;6.074;2023-02-13T07:48:18;51.00;;;19.60;;
17618;SDS011;8928;51.678;6.074;2023-02-13T07:51:05;53.70;;;19.30;;
17618;SDS011;8928;51.678;6.074;2023-02-13T07:53:53;50.33;;;19.80;;
17618;SDS011;8928;51.678;6.074;2023-02-13T07:56:40;53.60;;;20.30;;
17618;SDS011;8928;51.678;6.074;2023-02-13T07:59:27;58.10;;;21.90;;
17618;SDS011;8928;51.678;6.074;2023-02-13T08:02:14;59.70;;;22.87;;
17618;SDS011;8928;51.678;6.074;2023-02-13T08:05:02;61.13;;;21.97;;
17618;SDS011;8928;51.678;6.074;2023-02-13T08:07:49;64.87;;;23.10;;
17618;SDS011;8928;51.678;6.074;2023-02-13T08:10:37;61.80;;;22.40;;
17618;SDS011;8928;51.678;6.074;2023-02-13T08:13:43;58.70;;;21.67;;
17618;SDS011;8928;51.678;6.074;2023-02-13T08:16:30;60.23;;;22.57;;
17618;SDS011;8928;51.678;6.074;2023-02-13T08:19:17;65.33;;;24.13;;
17618;SDS011;8928;51.678;6.074;2023-02-13T08:22:04;67.03;;;24.53;;
17618;SDS011;8928;51.678;6.074;2023-02-13T08:24:51;66.33;;;23.80;;
17618;SDS011;8928;51.678;6.074;2023-02-13T08:27:39;64.77;;;24.77;;
17618;SDS011;8928;51.678;6.074;2023-02-13T08:30:27;67.13;;;25.10;;
17618;SDS011;8928;51.678;6.074;2023-02-13T08:33:14;63.53;;;24.40;;
17618;SDS011;8928;51.678;6.074;2023-02-13T08:36:01;64.17;;;24.20;;
17618;SDS011;8928;51.678;6.074;2023-02-13T08:38:48;61.60;;;23.93;;
17618;SDS011;8928;51.678;6.074;2023-02-13T08:41:35;58.60;;;24.13;;
17618;SDS011;8928;51.678;6.074;2023-02-13T08:44:24;60.20;;;24.37;;
17618;SDS011;8928;51.678;6.074;2023-02-13T08:47:11;63.23;;;23.07;;
17618;SDS011;8928;51.678;6.074;2023-02-13T08:49:58;57.63;;;23.00;;
17618;SDS011;8928;51.678;6.074;2023-02-13T08:52:45;57.77;;;23.73;;
17618;SDS011;8928;51.678;6.074;2023-02-13T08:55:32;54.70;;;23.37;;
17618;SDS011;8928;51.678;6.074;2023-02-13T08:58:19;56.27;;;22.30;;
17618;SDS011;8928;51.678;6.074;2023-02-13T09:01:07;50.17;;;22.20;;
17618;SDS011;8928;51.678;6.074;2023-02-13T09:03:54;54.53;;;22.37;;
17618;SDS011;8928;51.678;6.074;2023-02-13T09:06:41;48.03;;;21.10;;
17618;SDS011;8928;51.678;6.074;2023-02-13T09:09:29;46.87;;;20.43;;
17618;SDS011;8928;51.678;6.074;2023-02-13T09:12:16;43.70;;;20.07;;
17618;SDS011;8928;51.678;6.074;2023-02-13T09:15:03;41.70;;;19.30;;
17618;SDS011;8928;51.678;6.074;2023-02-13T09:17:51;41.17;;;19.50;;
17618;SDS011;8928;51.678;6.074;2023-02-13T09:20:39;42.10;;;19.57;;
17618;SDS011;8928;51.678;6.074;2023-02-13T09:23:26;39.00;;;18.43;;
17618;SDS011;8928;51.678;6.074;2023-02-13T09:26:16;41.50;;;18.53;;
17618;SDS011;8928;51.678;6.074;2023-02-13T09:29:04;35.20;;;17.50;;
17618;SDS011;8928;51.678;6.074;2023-02-13T09:31:51;34.77;;;17.63;;
17618;SDS011;8928;51.678;6.074;2023-02-13T09:34:40;36.23;;;17.50;;
17618;SDS011;8928;51.678;6.074;2023-02-13T09:37:27;34.30;;;16.97;;
17618;SDS011;8928;51.678;6.074;2023-02-13T09:40:18;33.17;;;16.33;;
17618;SDS011;8928;51.678;6.074;2023-02-13T09:43:11;31.73;;;16.33;;
17618;SDS011;8928;51.678;6.074;2023-02-13T09:46:02;31.70;;;16.40;;
17618;SDS011;8928;51.678;6.074;2023-02-13T09:48:55;31.97;;;16.03;;
17618;SDS011;8928;51.678;6.074;2023-02-13T09:51:47;31.07;;;16.30;;
17618;SDS011;8928;51.678;6.074;2023-02-13T09:54:40;31.00;;;15.80;;
17618;SDS011;8928;51.678;6.074;2023-02-13T09:57:29;28.43;;;14.70;;
17618;SDS011;8928;51.678;6.074;2023-02-13T10:00:20;28.63;;;14.80;;
17618;SDS011;8928;51.678;6.074;2023-02-13T10:03:18;28.77;;;14.87;;
17618;SDS011;8928;51.678;6.074;2023-02-13T10:06:13;25.23;;;13.63;;
17618;SDS011;8928;51.678;6.074;2023-02-13T10:09:10;27.80;;;14.17;;
17618;SDS011;8928;51.678;6.074;2023-02-13T10:12:06;25.07;;;13.83;;
17618;SDS011;8928;51.678;6.074;2023-02-13T10:15:06;29.50;;;15.30;;
17618;SDS011;8928;51.678;6.074;2023-02-13T10:18:02;26.47;;;14.20;;
17618;SDS011;8928;51.678;6.074;2023-02-13T10:20:52;29.27;;;15.07;;
17618;SDS011;8928;51.678;6.074;2023-02-13T10:23:43;28.53;;;14.47;;
17618;SDS011;8928;51.678;6.074;2023-02-13T10:26:35;24.13;;;14.27;;
17618;SDS011;8928;51.678;6.074;2023-02-13T10:29:34;27.00;;;14.70;;
17618;SDS011;8928;51.678;6.074;2023-02-13T10:32:43;27.00;;;14.53;;
17618;SDS011;8928;51.678;6.074;2023-02-13T10:35:34;25.93;;;14.87;;
17618;SDS011;8928;51.678;6.074;2023-02-13T10:38:22;26.10;;;14.40;;
17618;SDS011;8928;51.678;6.074;2023-02-13T10:41:18;26.33;;;14.53;;
17618;SDS011;8928;51.678;6.074;2023-02-13T10:44:15;28.47;;;14.37;;
17618;SDS011;8928;51.678;6.074;2023-02-13T10:47:18;28.03;;;14.40;;
17618;SDS011;8928;51.678;6.074;2023-02-13T10:50:18;25.87;;;14.33;;
17618;SDS011;8928;51.678;6.074;2023-02-13T10:53:13;25.20;;;14.47;;
17618;SDS011;8928;51.678;6.074;2023-02-13T10:56:10;24.73;;;14.07;;
17618;SDS011;8928;51.678;6.074;2023-02-13T10:59:14;26.13;;;14.83;;
17618;SDS011;8928;51.678;6.074;2023-02-13T11:02:21;26.53;;;14.93;;
17618;SDS011;8928;51.678;6.074;2023-02-13T11:05:12;25.23;;;13.90;;
17618;SDS011;8928;51.678;6.074;2023-02-13T11:08:04;23.37;;;14.10;;
17618;SDS011;8928;51.678;6.074;2023-02-13T11:11:03;23.83;;;13.33;;
17618;SDS011;8928;51.678;6.074;2023-02-13T11:14:13;25.00;;;13.90;;
17618;SDS011;8928;51.678;6.074;2023-02-13T11:17:02;26.23;;;15.30;;
17618;SDS011;8928;51.678;6.074;2023-02-13T11:19:52;26.47;;;15.00;;
17618;SDS011;8928;51.678;6.074;2023-02-13T11:22:41;25.53;;;14.40;;
17618;SDS011;8928;51.678;6.074;2023-02-13T11:25:28;24.77;;;14.57;;
17618;SDS011;8928;51.678;6.074;2023-02-13T11:28:16;23.47;;;13.83;;
17618;SDS011;8928;51.678;6.074;2023-02-13T11:31:13;27.93;;;14.30;;
17618;SDS011;8928;51.678;6.074;2023-02-13T11:34:17;23.77;;;13.70;;
17618;SDS011;8928;51.678;6.074;2023-02-13T11:37:14;24.73;;;13.93;;
17618;SDS011;8928;51.678;6.074;2023-02-13T11:40:27;25.97;;;14.07;;
17618;SDS011;8928;51.678;6.074;2023-02-13T11:43:17;24.17;;;13.00;;
17618;SDS011;8928;51.678;6.074;2023-02-13T11:46:13;24.30;;;14.10;;
17618;SDS011;8928;51.678;6.074;2023-02-13T11:49:05;21.70;;;13.10;;
17618;SDS011;8928;51.678;6.074;2023-02-13T11:52:05;24.07;;;13.50;;
17618;SDS011;8928;51.678;6.074;2023-02-13T11:54:56;22.80;;;13.30;;
17618;SDS011;8928;51.678;6.074;2023-02-13T11:57:45;22.73;;;12.77;;
17618;SDS011;8928;51.678;6.074;2023-02-13T12:00:43;22.53;;;13.07;;
17618;SDS011;8928;51.678;6.074;2023-02-13T12:03:33;23.47;;;12.50;;
17618;SDS011;8928;51.678;6.074;2023-02-13T12:06:20;23.13;;;12.73;;
17618;SDS011;8928;51.678;6.074;2023-02-13T12:09:11;20.87;;;12.87;;
17618;SDS011;8928;51.678;6.074;2023-02-13T12:12:00;20.93;;;13.03;;
17618;SDS011;8928;51.678;6.074;2023-02-13T12:14:49;22.37;;;13.20;;
17618;SDS011;8928;51.678;6.074;2023-02-13T12:17:37;20.50;;;12.60;;
17618;SDS011;8928;51.678;6.074;2023-02-13T12:20:31;21.53;;;12.57;;
17618;SDS011;8928;51.678;6.074;2023-02-13T12:23:26;19.90;;;12.47;;
17618;SDS011;8928;51.678;6.074;2023-02-13T12:26:21;20.47;;;12.53;;
17618;SDS011;8928;51.678;6.074;2023-02-13T12:29:19;21.27;;;12.50;;
17618;SDS011;8928;51.678;6.074;2023-02-13T12:32:19;22.60;;;12.77;;
17618;SDS011;8928;51.678;6.074;2023-02-13T12:35:17;20.97;;;12.07;;
17618;SDS011;8928;51.678;6.074;2023-02-13T12:38:19;20.37;;;12.27;;
17618;SDS011;8928;51.678;6.074;2023-02-13T12:41:20;22.20;;;12.97;;
17618;SDS011;8928;51.678;6.074;2023-02-13T12:47:30;19.20;;;11.90;;
17618;SDS011;8928;51.678;6.074;2023-02-13T12:50:31;23.63;;;12.77;;
17618;SDS011;8928;51.678;6.074;2023-02-13T12:56:50;20.80;;;11.97;;
17618;SDS011;8928;51.678;6.074;2023-02-13T12:59:50;23.60;;;12.50;;
17618;SDS011;8928;51.678;6.074;2023-02-13T13:02:50;21.33;;;12.83;;
17618;SDS011;8928;51.678;6.074;2023-02-13T13:05:56;21.33;;;11.77;;
17618;SDS011;8928;51.678;6.074;2023-02-13T13:08:58;22.27;;;11.97;;
17618;SDS011;8928;51.678;6.074;2023-02-13T13:12:20;20.17;;;11.87;;
17618;SDS011;8928;51.678;6.074;2023-02-13T13:15:18;19.37;;;11.40;;
17618;SDS011;8928;51.678;6.074;2023-02-13T13:18:19;20.43;;;12.00;;
17618;SDS011;8928;51.678;6.074;2023-02-13T13:21:20;19.33;;;11.37;;
17618;SDS011;8928;51.678;6.074;2023-02-13T13:24:27;19.43;;;11.07;;
17618;SDS011;8928;51.678;6.074;2023-02-13T13:27:22;19.50;;;11.57;;
17618;SDS011;8928;51.678;6.074;2023-02-13T13:30:13;21.90;;;11.63;;
17618;SDS011;8928;51.678;6.074;2023-02-13T13:33:04;18.10;;;11.00;;
17618;SDS011;8928;51.678;6.074;2023-02-13T13:35:57;18.17;;;10.80;;
17618;SDS011;8928;51.678;6.074;2023-02-13T13:38:51;20.00;;;11.00;;
17618;SDS011;8928;51.678;6.074;2023-02-13T13:41:46;22.03;;;10.93;;
17618;SDS011;8928;51.678;6.074;2023-02-13T13:44:45;20.85;;;11.20;;
17618;SDS011;8928;51.678;6.074;2023-02-13T13:47:55;18.30;;;11.25;;
17618;SDS011;8928;51.678;6.074;2023-02-13T13:50:49;18.33;;;10.90;;
17618;SDS011;8928;51.678;6.074;2023-02-13T13:53:36;25.45;;;12.27;;
17618;SDS011;8928;51.678;6.074;2023-02-13T13:57:04;19.88;;;11.93;;
17618;SDS011;8928;51.678;6.074;2023-02-13T13:59:57;19.45;;;11.68;;
17618;SDS011;8928;51.678;6.074;2023-02-13T14:02:49;19.13;;;11.52;;
17618;SDS011;8928;51.678;6.074;2023-02-13T14:08:54;21.40;;;12.10;;
17618;SDS011;8928;51.678;6.074;2023-02-13T14:11:44;19.05;;;11.82;;
17618;SDS011;8928;51.678;6.074;2023-02-13T14:17:53;19.25;;;12.13;;
17618;SDS011;8928;51.678;6.074;2023-02-13T14:20:41;22.23;;;11.95;;
17618;SDS011;8928;51.678;6.074;2023-02-13T14:23:45;17.75;;;11.60;;
17618;SDS011;8928;51.678;6.074;2023-02-13T14:26:37;18.98;;;11.45;;
17618;SDS011;8928;51.678;6.074;2023-02-13T14:29:27;17.65;;;12.35;;
17618;SDS011;8928;51.678;6.074;2023-02-13T14:32:20;19.25;;;12.60;;
17618;SDS011;8928;51.678;6.074;2023-02-13T14:35:15;19.35;;;11.15;;
17618;SDS011;8928;51.678;6.074;2023-02-13T14:38:17;15.88;;;10.82;;
17618;SDS011;8928;51.678;6.074;2023-02-13T14:44:29;16.88;;;11.20;;
17618;SDS011;8928;51.678;6.074;2023-02-13T14:47:21;17.73;;;10.80;;
17618;SDS011;8928;51.678;6.074;2023-02-13T14:50:15;16.30;;;10.80;;
17618;SDS011;8928;51.678;6.074;2023-02-13T14:53:08;14.93;;;10.63;;
17618;SDS011;8928;51.678;6.074;2023-02-13T14:56:04;15.32;;;10.57;;
17618;SDS011;8928;51.678;6.074;2023-02-13T14:58:56;17.80;;;11.10;;
17618;SDS011;8928;51.678;6.074;2023-02-13T15:01:47;16.27;;;10.95;;
17618;SDS011;8928;51.678;6.074;2023-02-13T15:04:40;18.83;;;11.45;;
17618;SDS011;8928;51.678;6.074;2023-02-13T15:07:29;21.08;;;11.68;;
17618;SDS011;8928;51.678;6.074;2023-02-13T15:10:26;17.67;;;11.60;;
17618;SDS011;8928;51.678;6.074;2023-02-13T15:13:22;21.58;;;12.40;;
17618;SDS011;8928;51.678;6.074;2023-02-13T15:16:10;18.17;;;11.18;;
17618;SDS011;8928;51.678;6.074;2023-02-13T15:18:59;20.42;;;11.70;;
17618;SDS011;8928;51.678;6.074;2023-02-13T15:21:49;21.52;;;11.30;;
17618;SDS011;8928;51.678;6.074;2023-02-13T15:24:42;22.73;;;11.30;;
17618;SDS011;8928;51.678;6.074;2023-02-13T15:27:32;21.30;;;11.88;;
17618;SDS011;8928;51.678;6.074;2023-02-13T15:30:24;23.00;;;11.93;;
17618;SDS011;8928;51.678;6.074;2023-02-13T15:33:14;21.77;;;11.48;;
17618;SDS011;8928;51.678;6.074;2023-02-13T15:36:03;26.05;;;11.35;;
17618;SDS011;8928;51.678;6.074;2023-02-13T15:38:58;21.50;;;10.95;;
17618;SDS011;8928;51.678;6.074;2023-02-13T15:41:48;23.10;;;11.25;;
17618;SDS011;8928;51.678;6.074;2023-02-13T15:44:37;20.40;;;10.63;;
17618;SDS011;8928;51.678;6.074;2023-02-13T15:47:26;22.90;;;10.70;;
17618;SDS011;8928;51.678;6.074;2023-02-13T15:50:16;22.13;;;11.00;;
17618;SDS011;8928;51.678;6.074;2023-02-13T15:53:08;24.25;;;11.48;;
17618;SDS011;8928;51.678;6.074;2023-02-13T15:56:02;24.48;;;11.10;;
17618;SDS011;8928;51.678;6.074;2023-02-13T15:58:52;21.70;;;11.27;;
17618;SDS011;8928;51.678;6.074;2023-02-13T16:01:41;29.43;;;11.10;;
17618;SDS011;8928;51.678;6.074;2023-02-13T16:04:29;22.90;;;11.30;;
17618;SDS011;8928;51.678;6.074;2023-02-13T16:07:17;22.63;;;10.70;;
17618;SDS011;8928;51.678;6.074;2023-02-13T16:10:14;21.07;;;10.27;;
17618;SDS011;8928;51.678;6.074;2023-02-13T16:13:03;20.80;;;10.77;;
17618;SDS011;8928;51.678;6.074;2023-02-13T16:15:52;23.43;;;10.57;;
17618;SDS011;8928;51.678;6.074;2023-02-13T16:18:39;20.43;;;10.17;;
17618;SDS011;8928;51.678;6.074;2023-02-13T16:21:26;22.43;;;10.37;;
17618;SDS011;8928;51.678;6.074;2023-02-13T16:24:15;21.17;;;9.93;;
17618;SDS011;8928;51.678;6.074;2023-02-13T16:27:03;22.60;;;10.60;;
17618;SDS011;8928;51.678;6.074;2023-02-13T16:29:59;20.60;;;10.23;;
17618;SDS011;8928;51.678;6.074;2023-02-13T16:32:48;20.63;;;9.87;;
17618;SDS011;8928;51.678;6.074;2023-02-13T16:35:36;24.63;;;9.80;;
17618;SDS011;8928;51.678;6.074;2023-02-13T16:38:29;22.60;;;10.07;;
17618;SDS011;8928;51.678;6.074;2023-02-13T16:41:28;19.07;;;9.80;;
17618;SDS011;8928;51.678;6.074;2023-02-13T16:44:23;22.07;;;9.53;;
17618;SDS011;8928;51.678;6.074;2023-02-13T16:47:18;20.57;;;10.27;;
17618;SDS011;8928;51.678;6.074;2023-02-13T16:50:11;24.93;;;9.73;;
17618;SDS011;8928;51.678;6.074;2023-02-13T16:53:00;21.23;;;9.80;;
17618;SDS011;8928;51.678;6.074;2023-02-13T16:55:55;23.63;;;10.77;;
17618;SDS011;8928;51.678;6.074;2023-02-13T16:58:42;20.47;;;10.07;;
17618;SDS011;8928;51.678;6.074;2023-02-13T17:01:30;25.17;;;9.63;;
17618;SDS011;8928;51.678;6.074;2023-02-13T17:04:20;22.27;;;10.13;;
17618;SDS011;8928;51.678;6.074;2023-02-13T17:07:12;22.60;;;10.33;;
17618;SDS011;8928;51.678;6.074;2023-02-13T17:10:03;25.73;;;10.97;;
17618;SDS011;8928;51.678;6.074;2023-02-13T17:12:52;21.80;;;10.83;;
17618;SDS011;8928;51.678;6.074;2023-02-13T17:15:41;24.07;;;10.43;;
17618;SDS011;8928;51.678;6.074;2023-02-13T17:18:29;27.30;;;10.87;;
17618;SDS011;8928;51.678;6.074;2023-02-13T17:21:17;22.07;;;10.67;;
17618;SDS011;8928;51.678;6.074;2023-02-13T17:24:04;23.20;;;10.97;;
17618;SDS011;8928;51.678;6.074;2023-02-13T17:26:52;21.27;;;10.50;;
17618;SDS011;8928;51.678;6.074;2023-02-13T17:29:40;23.93;;;10.53;;